Time;durP1;ratioP1;P1;durP2;ratioP2;P2;SDS_P1;SDS_P2;PMS_P1;PMS_P2;Temp;Humidity;BMP_temperature;BMP_pressure;BME280_temperature;BME280_humidity;BME280_pressure;Samples;Min_cycle;Max_cycle;Signal;HPM_P1;HPM_P2
2023/12/31 00:01:55;;;;;;;2.03;1.42;;;;;;;7.42;100.00;97947.53;4171531;28;20250;-51
2023/12/31 00:03:57;;;;;;;2.30;1.42;;;;;;;7.24;100.00;97944.19;4175436;28;20208;-52
2023/12/31 00:05:59;;;;;;;1.80;1.70;;;;;;;7.31;100.00;97933.97;4169956;28;20476;-52
2023/12/31 00:08:01;;;;;;;0.90;0.90;;;;;;;7.17;100.00;97932.63;4172953;28;20299;-50
2023/12/31 00:10:05;;;;;;;0.85;0.85;;;;;;;7.16;100.00;97930.97;4174779;28;20799;-51
2023/12/31 00:12:07;;;;;;;5.78;1.30;;;;;;;7.20;100.00;97923.97;4177638;28;20809;-50
2023/12/31 00:14:08;;;;;;;1.58;1.40;;;;;;;7.07;100.00;97916.09;4176278;28;20207;-51
2023/12/31 00:16:12;;;;;;;1.90;1.80;;;;;;;7.05;100.00;97912.78;4174165;28;20228;-51
2023/12/31 00:18:14;;;;;;;1.42;1.33;;;;;;;7.01;100.00;97911.63;4167102;28;20311;-51
2023/12/31 00:20:15;;;;;;;1.33;1.23;;;;;;;7.06;100.00;97903.56;4171574;28;20308;-50
2023/12/31 00:22:17;;;;;;;0.90;0.90;;;;;;;7.10;100.00;97888.41;4166452;28;20703;-50
2023/12/31 00:24:19;;;;;;;1.20;1.08;;;;;;;7.00;100.00;97893.66;4170221;28;20205;-49
2023/12/31 00:26:21;;;;;;;0.98;0.98;;;;;;;6.97;100.00;97889.50;4176820;28;20753;-50
2023/12/31 00:28:22;;;;;;;1.75;1.45;;;;;;;6.94;100.00;97891.91;4166026;28;20207;-50
2023/12/31 00:30:27;;;;;;;0.95;0.95;;;;;;;6.96;100.00;97893.31;4169744;28;20217;-51
2023/12/31 00:32:29;;;;;;;0.80;0.80;;;;;;;6.88;100.00;97885.53;4168450;28;20658;-52
2023/12/31 00:34:31;;;;;;;1.65;0.90;;;;;;;6.95;100.00;97875.34;4169028;28;20204;-51
2023/12/31 00:36:34;;;;;;;0.90;0.90;;;;;;;6.89;100.00;97881.75;4174438;28;20605;-51
2023/12/31 00:38:36;;;;;;;1.00;1.00;;;;;;;6.87;100.00;97878.44;4169916;28;20632;-51
2023/12/31 00:40:37;;;;;;;1.75;1.40;;;;;;;6.87;100.00;97877.63;4168110;28;20252;-51
2023/12/31 00:42:39;;;;;;;1.75;1.05;;;;;;;6.80;100.00;97860.63;4170929;28;20619;-51
2023/12/31 00:44:41;;;;;;;1.20;1.13;;;;;;;6.76;100.00;97867.63;4157114;28;20576;-51
2023/12/31 00:46:43;;;;;;;1.40;1.40;;;;;;;6.65;100.00;97860.31;4168795;28;20208;-50
2023/12/31 00:48:45;;;;;;;0.98;0.98;;;;;;;6.59;100.00;97853.97;4167841;28;20227;-51
2023/12/31 00:50:46;;;;;;;0.68;0.68;;;;;;;6.65;100.00;97854.88;4176532;28;20320;-51
2023/12/31 00:52:48;;;;;;;1.00;1.00;;;;;;;6.50;100.00;97843.72;4167617;28;20204;-51
2023/12/31 00:54:52;;;;;;;1.48;1.38;;;;;;;6.43;100.00;97853.91;4165364;28;20215;-51
2023/12/31 00:56:54;;;;;;;1.95;1.75;;;;;;;6.66;100.00;97837.50;4171447;28;20307;-51
2023/12/31 00:58:55;;;;;;;0.80;0.80;;;;;;;6.46;100.00;97842.53;4167641;28;20239;-51
2023/12/31 01:00:57;;;;;;;1.10;1.10;;;;;;;6.39;100.00;97831.81;4169939;28;20216;-51
2023/12/31 01:02:59;;;;;;;1.52;1.42;;;;;;;6.34;100.00;97830.88;4166948;28;20207;-51
2023/12/31 01:05:01;;;;;;;1.65;1.55;;;;;;;6.47;100.00;97817.00;4169114;28;20199;-50
2023/12/31 01:07:03;;;;;;;1.05;1.05;;;;;;;6.45;100.00;97806.41;4168086;28;20218;-50
2023/12/31 01:09:06;;;;;;;1.08;1.08;;;;;;;6.40;100.00;97805.44;4168976;28;20229;-51
2023/12/31 01:11:07;;;;;;;5.13;1.48;;;;;;;6.58;100.00;97799.84;4175175;28;20269;-51
2023/12/31 01:13:09;;;;;;;1.40;1.35;;;;;;;6.60;100.00;97786.84;4175141;28;20627;-51
2023/12/31 01:15:11;;;;;;;1.75;1.65;;;;;;;6.71;100.00;97791.41;4168893;28;20267;-50
2023/12/31 01:17:13;;;;;;;1.17;1.17;;;;;;;6.57;100.00;97780.00;4167446;28;20204;-51
2023/12/31 01:19:16;;;;;;;0.90;0.90;;;;;;;6.49;100.00;97776.84;4167317;28;20289;-51
2023/12/31 01:21:18;;;;;;;1.67;1.55;;;;;;;6.52;100.00;97773.63;4170723;28;20220;-51
2023/12/31 01:23:20;;;;;;;1.27;1.27;;;;;;;6.56;100.00;97772.09;4163215;28;20212;-50
2023/12/31 01:25:22;;;;;;;0.90;0.90;;;;;;;6.41;100.00;97759.03;4171392;28;20235;-51
2023/12/31 01:27:23;;;;;;;1.27;1.27;;;;;;;6.37;100.00;97759.75;4166098;28;20208;-51
2023/12/31 01:29:25;;;;;;;1.10;1.10;;;;;;;6.35;100.00;97759.19;4172759;28;20285;-49
2023/12/31 01:31:27;;;;;;;0.90;0.90;;;;;;;6.29;100.00;97743.84;4158374;28;20204;-50
2023/12/31 01:33:29;;;;;;;0.80;0.80;;;;;;;6.22;100.00;97748.59;4172791;28;20300;-51
2023/12/31 01:35:30;;;;;;;0.93;0.90;;;;;;;6.19;100.00;97752.63;4167034;28;20239;-52
2023/12/31 01:37:32;;;;;;;0.95;0.95;;;;;;;6.18;100.00;97763.72;4171541;28;20211;-51
2023/12/31 01:39:34;;;;;;;1.30;1.20;;;;;;;6.13;100.00;97760.91;4153612;28;20256;-50
2023/12/31 01:41:36;;;;;;;0.90;0.90;;;;;;;6.13;100.00;97777.19;4176128;28;20625;-51
2023/12/31 01:43:37;;;;;;;1.02;1.02;;;;;;;6.11;100.00;97776.63;4168602;28;20208;-51
2023/12/31 01:45:39;;;;;;;1.25;1.25;;;;;;;6.14;100.00;97774.25;4169338;28;20223;-51
2023/12/31 01:47:41;;;;;;;1.30;1.23;;;;;;;6.02;100.00;97781.59;4167490;28;20274;-50
2023/12/31 01:49:43;;;;;;;1.60;1.50;;;;;;;6.01;100.00;97777.22;4172202;28;20227;-51
2023/12/31 01:51:45;;;;;;;1.02;0.77;;;;;;;5.93;100.00;97760.47;4171350;28;20765;-51
2023/12/31 01:53:47;;;;;;;0.93;0.93;;;;;;;6.00;100.00;97766.59;4171544;28;20207;-51
2023/12/31 01:55:49;;;;;;;1.55;1.45;;;;;;;6.07;100.00;97778.16;4171515;28;20228;-51
2023/12/31 01:57:51;;;;;;;0.90;0.90;;;;;;;6.04;100.00;97773.22;4157908;28;20303;-52
2023/12/31 01:59:55;;;;;;;0.90;0.90;;;;;;;6.26;100.00;97760.63;4167522;28;20281;-51
2023/12/31 02:01:57;;;;;;;1.20;1.20;;;;;;;6.39;100.00;97754.91;4168611;28;20220;-52
2023/12/31 02:03:59;;;;;;;1.42;1.08;;;;;;;6.39;100.00;97749.47;4154459;28;20209;-52
2023/12/31 02:06:00;;;;;;;0.98;0.90;;;;;;;6.38;100.00;97731.53;4170613;28;20212;-51
2023/12/31 02:08:02;;;;;;;1.00;1.00;;;;;;;6.50;100.00;97735.81;4171892;28;20572;-51
2023/12/31 02:10:04;;;;;;;1.05;1.05;;;;;;;6.45;100.00;97743.06;4169299;28;20784;-52
2023/12/31 02:12:07;;;;;;;1.95;0.70;;;;;;;6.57;100.00;97735.69;4202704;28;20219;-52
2023/12/31 02:14:08;;;;;;;1.00;1.00;;;;;;;6.39;100.00;97734.00;4171237;28;20213;-50
2023/12/31 02:16:17;;;;;;;1.48;1.25;;;;;;;6.31;100.00;97725.41;4171221;28;20232;-51
2023/12/31 02:18:19;;;;;;;0.95;0.95;;;;;;;6.28;100.00;97731.34;4179185;28;20215;-51
2023/12/31 02:20:21;;;;;;;1.05;1.00;;;;;;;6.33;100.00;97728.69;4169645;28;20231;-52
2023/12/31 02:22:24;;;;;;;1.38;1.27;;;;;;;6.22;100.00;97721.44;4171177;28;20544;-54
2023/12/31 02:24:31;;;;;;;3.45;1.00;;;;;;;6.04;100.00;97714.28;4169732;28;20200;-52
2023/12/31 02:26:33;;;;;;;0.75;0.75;;;;;;;6.05;100.00;97717.84;4169391;28;20229;-51
2023/12/31 02:28:35;;;;;;;1.10;1.10;;;;;;;6.04;100.00;97710.75;4168747;28;20232;-52
2023/12/31 02:30:37;;;;;;;2.30;1.10;;;;;;;5.95;100.00;97704.88;4171147;28;20207;-53
2023/12/31 02:32:38;;;;;;;1.98;1.60;;;;;;;5.95;100.00;97701.34;4167926;28;20247;-52
2023/12/31 02:34:45;;;;;;;1.17;1.10;;;;;;;5.96;100.00;97705.72;4168098;28;20609;-53
2023/12/31 02:36:47;;;;;;;1.52;1.05;;;;;;;5.95;100.00;97704.06;4174328;28;20240;-54
2023/12/31 02:38:49;;;;;;;1.27;1.13;;;;;;;6.01;100.00;97694.94;4175710;28;20228;-51
2023/12/31 02:40:51;;;;;;;1.17;1.17;;;;;;;5.91;100.00;97692.88;4176438;28;20200;-52
2023/12/31 02:42:52;;;;;;;1.08;1.02;;;;;;;5.92;100.00;97674.66;4170621;28;20719;-53
2023/12/31 02:44:54;;;;;;;0.82;0.82;;;;;;;5.94;100.00;97675.25;4168448;28;20215;-52
2023/12/31 02:46:56;;;;;;;1.70;1.58;;;;;;;5.91;100.00;97665.72;4173546;28;20291;-53
2023/12/31 02:48:58;;;;;;;1.00;1.00;;;;;;;5.89;100.00;97667.03;4165421;28;20710;-52
2023/12/31 02:51:00;;;;;;;0.93;0.93;;;;;;;5.86;100.00;97657.47;4170408;28;20209;-51
2023/12/31 02:53:03;;;;;;;0.95;0.95;;;;;;;5.88;100.00;97655.31;4168919;28;20999;-52
2023/12/31 02:55:05;;;;;;;0.95;0.90;;;;;;;5.99;100.00;97656.34;4174989;28;20294;-51
2023/12/31 02:57:07;;;;;;;0.98;0.93;;;;;;;6.17;100.00;97658.88;4169842;28;20297;-54
2023/12/31 02:59:09;;;;;;;1.27;1.20;;;;;;;6.26;100.00;97651.97;4170969;28;20220;-54
2023/12/31 03:01:10;;;;;;;0.60;0.60;;;;;;;6.25;100.00;97645.72;4166939;28;20204;-51
2023/12/31 03:03:12;;;;;;;1.17;1.10;;;;;;;6.35;100.00;97642.38;4200354;28;20214;-53
2023/12/31 03:05:14;;;;;;;0.90;0.90;;;;;;;6.40;100.00;97647.88;4169756;28;20208;-52
2023/12/31 03:07:16;;;;;;;0.95;0.85;;;;;;;6.53;100.00;97648.41;4169365;28;20208;-51
2023/12/31 03:09:19;;;;;;;1.20;1.10;;;;;;;6.60;100.00;97648.22;4168645;28;20327;-51
2023/12/31 03:11:20;;;;;;;0.95;0.90;;;;;;;6.49;100.00;97643.72;4171128;28;20580;-52
2023/12/31 03:13:22;;;;;;;1.02;1.02;;;;;;;6.44;100.00;97639.00;4166979;28;20204;-50
2023/12/31 03:15:24;;;;;;;1.73;1.63;;;;;;;6.33;100.00;97633.63;4174107;28;20213;-52
2023/12/31 03:17:25;;;;;;;1.05;1.05;;;;;;;6.28;100.00;97633.56;4170761;28;20208;-50
2023/12/31 03:19:27;;;;;;;1.27;0.80;;;;;;;6.16;100.00;97621.91;4170832;28;20732;-51
2023/12/31 03:21:30;;;;;;;1.13;0.75;;;;;;;6.14;100.00;97615.88;4169881;28;20710;-50
2023/12/31 03:23:31;;;;;;;1.17;1.08;;;;;;;6.02;100.00;97617.88;4168572;28;20283;-50
2023/12/31 03:25:33;;;;;;;0.85;0.85;;;;;;;5.98;100.00;97612.09;4175147;28;20725;-51
2023/12/31 03:27:35;;;;;;;0.80;0.80;;;;;;;5.87;100.00;97601.25;4168656;28;20282;-49
2023/12/31 03:29:38;;;;;;;0.70;0.70;;;;;;;5.90;100.00;97604.31;4169177;28;20236;-51
2023/12/31 03:31:39;;;;;;;0.70;0.70;;;;;;;5.91;100.00;97597.84;4165364;28;20212;-48
2023/12/31 03:33:41;;;;;;;1.05;1.05;;;;;;;5.89;100.00;97591.00;4168937;28;20204;-50
2023/12/31 03:35:43;;;;;;;0.95;0.95;;;;;;;5.88;100.00;97590.19;4166579;28;20204;-50
2023/12/31 03:37:47;;;;;;;0.90;0.90;;;;;;;5.99;100.00;97585.75;4167979;28;20690;-49
2023/12/31 03:39:51;;;;;;;1.00;1.00;;;;;;;5.99;100.00;97585.75;4168136;28;20246;-50
2023/12/31 03:41:53;;;;;;;1.13;1.13;;;;;;;6.02;100.00;97580.66;4170357;28;21652;-51
2023/12/31 03:43:55;;;;;;;1.20;1.20;;;;;;;6.02;100.00;97577.13;4154458;28;20212;-53
2023/12/31 03:45:57;;;;;;;1.60;1.38;;;;;;;6.04;100.00;97572.28;4171051;28;20207;-50
2023/12/31 03:47:58;;;;;;;1.45;1.35;;;;;;;6.24;100.00;97580.78;4168657;28;20295;-51
2023/12/31 03:50:00;;;;;;;1.27;1.17;;;;;;;6.27;100.00;97572.13;4169248;28;20272;-50
2023/12/31 03:52:02;;;;;;;1.13;1.10;;;;;;;6.34;100.00;97573.63;4169979;28;20240;-51
2023/12/31 03:54:05;;;;;;;1.25;1.25;;;;;;;6.34;100.00;97572.78;4170594;28;20216;-51
2023/12/31 03:56:10;;;;;;;1.30;1.20;;;;;;;6.25;100.00;97574.28;4165075;28;20277;-51
2023/12/31 03:58:12;;;;;;;1.00;1.00;;;;;;;6.20;100.00;97566.03;4174645;28;20311;-50
2023/12/31 04:00:14;;;;;;;1.50;1.10;;;;;;;6.21;100.00;97567.66;4168921;28;20204;-50
2023/12/31 04:02:19;;;;;;;0.93;0.93;;;;;;;6.24;100.00;97564.47;4169597;28;20227;-51
2023/12/31 04:04:20;;;;;;;0.80;0.80;;;;;;;6.18;100.00;97558.16;4176795;28;20203;-50
2023/12/31 04:06:22;;;;;;;0.82;0.82;;;;;;;6.17;100.00;97561.09;4174214;28;20721;-50
2023/12/31 04:08:24;;;;;;;0.77;0.77;;;;;;;6.11;100.00;97562.09;4168577;28;20213;-50
2023/12/31 04:10:26;;;;;;;1.52;1.42;;;;;;;6.14;100.00;97550.72;4169139;28;20196;-49
2023/12/31 04:12:28;;;;;;;1.15;1.15;;;;;;;6.08;100.00;97540.88;4172998;28;20200;-50
2023/12/31 04:14:30;;;;;;;1.20;1.10;;;;;;;6.13;100.00;97538.22;4171921;28;20253;-51
2023/12/31 04:16:32;;;;;;;0.85;0.85;;;;;;;6.14;100.00;97529.00;4170300;28;20228;-51
2023/12/31 04:18:34;;;;;;;0.90;0.90;;;;;;;6.10;100.00;97523.22;4172041;28;20259;-51
2023/12/31 04:20:36;;;;;;;1.13;1.13;;;;;;;6.26;100.00;97524.31;4180795;28;20204;-51
2023/12/31 04:22:37;;;;;;;1.10;1.10;;;;;;;6.17;100.00;97517.66;4169162;28;20212;-49
2023/12/31 04:24:39;;;;;;;1.40;1.30;;;;;;;6.15;100.00;97520.59;4170989;28;20705;-51
2023/12/31 04:26:44;;;;;;;0.95;0.95;;;;;;;6.11;100.00;97513.19;4177459;28;20592;-50
2023/12/31 04:28:46;;;;;;;1.10;1.10;;;;;;;6.14;100.00;97499.13;4167256;28;20221;-51
2023/12/31 04:30:48;;;;;;;1.63;1.10;;;;;;;6.19;100.00;97493.78;4178620;28;20818;-51
2023/12/31 04:32:49;;;;;;;1.50;1.40;;;;;;;6.22;100.00;97487.88;4171532;28;20240;-50
2023/12/31 04:34:51;;;;;;;1.20;1.20;;;;;;;6.18;100.00;97481.28;4167710;28;20574;-51
2023/12/31 04:36:53;;;;;;;0.98;0.98;;;;;;;6.25;100.00;97487.34;4169633;28;20255;-52
2023/12/31 04:38:54;;;;;;;1.23;1.23;;;;;;;6.19;100.00;97483.75;4169875;28;20232;-52
2023/12/31 04:40:56;;;;;;;0.75;0.75;;;;;;;6.21;100.00;97470.72;4168289;28;20652;-51
2023/12/31 04:42:58;;;;;;;1.25;1.25;;;;;;;6.22;100.00;97477.81;4166896;28;20215;-53
2023/12/31 04:45:04;;;;;;;1.20;1.20;;;;;;;6.10;100.00;97468.13;4172384;28;20322;-51
2023/12/31 04:47:07;;;;;;;0.90;0.90;;;;;;;6.18;100.00;97475.84;4168639;28;20209;-51
2023/12/31 04:49:08;;;;;;;1.65;1.63;;;;;;;6.17;100.00;97468.78;4169547;28;20279;-51
2023/12/31 04:51:29;;;;;;;1.60;1.50;;;;;;;6.07;100.00;97468.59;4152232;28;20205;-51
2023/12/31 04:53:33;;;;;;;1.00;0.82;;;;;;;5.99;100.00;97455.44;4170581;28;20204;-51
2023/12/31 04:55:35;;;;;;;2.75;1.58;;;;;;;6.09;100.00;97450.19;4172555;28;20200;-50
2023/12/31 04:57:36;;;;;;;4.00;1.38;;;;;;;6.12;100.00;97457.81;4165796;28;20598;-50
2023/12/31 04:59:39;;;;;;;0.90;0.90;;;;;;;6.19;100.00;97453.03;4165501;28;20669;-51
2023/12/31 05:01:41;;;;;;;1.80;1.70;;;;;;;6.29;100.00;97445.06;4172229;28;20204;-50
2023/12/31 05:03:45;;;;;;;7.38;1.30;;;;;;;6.47;100.00;97442.03;4170060;28;20204;-50
2023/12/31 05:05:47;;;;;;;0.98;0.98;;;;;;;6.51;100.00;97449.47;4200357;28;20203;-51
2023/12/31 05:07:49;;;;;;;0.85;0.85;;;;;;;6.46;100.00;97445.84;4165474;28;20361;-50
2023/12/31 05:09:50;;;;;;;4.03;0.88;;;;;;;6.56;100.00;97427.78;4174104;28;20232;-50
2023/12/31 05:11:52;;;;;;;0.90;0.90;;;;;;;6.58;100.00;97433.81;4175018;28;20207;-50
2023/12/31 05:13:54;;;;;;;1.35;1.35;;;;;;;6.51;100.00;97429.59;4166661;28;20214;-50
2023/12/31 05:15:56;;;;;;;0.90;0.90;;;;;;;6.54;100.00;97442.69;4168613;28;20209;-51
2023/12/31 05:17:57;;;;;;;0.70;0.70;;;;;;;6.50;100.00;97436.94;4167901;28;20645;-50
2023/12/31 05:19:59;;;;;;;2.80;1.02;;;;;;;6.47;100.00;97420.31;4181931;28;20231;-51
2023/12/31 05:22:01;;;;;;;1.25;1.23;;;;;;;6.59;100.00;97423.72;4164257;28;20334;-50
2023/12/31 05:24:03;;;;;;;1.05;0.95;;;;;;;6.62;100.00;97418.63;4169255;28;20220;-50
2023/12/31 05:26:04;;;;;;;1.02;1.02;;;;;;;6.80;100.00;97414.75;4164540;28;21090;-50
2023/12/31 05:28:06;;;;;;;0.70;0.70;;;;;;;7.11;100.00;97416.78;4166712;28;20212;-50
2023/12/31 05:30:09;;;;;;;0.98;0.98;;;;;;;7.21;100.00;97423.16;4164695;28;20252;-50
2023/12/31 05:32:12;;;;;;;0.77;0.77;;;;;;;7.90;100.00;97415.94;4165426;28;20208;-51
2023/12/31 05:34:13;;;;;;;1.00;1.00;;;;;;;8.04;100.00;97414.41;4162755;28;20270;-51
2023/12/31 05:36:15;;;;;;;1.27;1.23;;;;;;;7.99;100.00;97408.91;4166317;28;20671;-50
2023/12/31 05:38:17;;;;;;;0.80;0.80;;;;;;;8.08;100.00;97419.06;4173778;28;20208;-51
2023/12/31 05:40:19;;;;;;;1.00;1.00;;;;;;;7.99;100.00;97427.97;4175045;28;20303;-51
2023/12/31 05:42:21;;;;;;;0.88;0.88;;;;;;;8.06;100.00;97428.56;4164337;28;20239;-50
2023/12/31 05:44:23;;;;;;;0.73;0.73;;;;;;;8.17;100.00;97427.56;4197230;28;20202;-49
2023/12/31 05:46:25;;;;;;;0.88;0.88;;;;;;;8.15;100.00;97424.31;4164827;28;20213;-52
2023/12/31 05:48:27;;;;;;;1.00;1.00;;;;;;;8.40;100.00;97411.69;4167681;28;20208;-50
2023/12/31 05:50:28;;;;;;;0.77;0.77;;;;;;;8.47;100.00;97416.91;4167098;28;20240;-50
2023/12/31 05:52:30;;;;;;;0.80;0.80;;;;;;;8.56;100.00;97413.41;4164727;28;20204;-50
2023/12/31 05:54:32;;;;;;;0.93;0.93;;;;;;;8.87;100.00;97414.38;4169733;28;20215;-49
2023/12/31 05:56:34;;;;;;;1.13;1.13;;;;;;;8.86;100.00;97404.56;4157152;28;20223;-49
2023/12/31 05:58:35;;;;;;;0.85;0.85;;;;;;;8.85;100.00;97405.66;4172475;28;20220;-51
2023/12/31 06:00:37;;;;;;;0.80;0.80;;;;;;;8.89;100.00;97406.78;4170412;28;20207;-50
2023/12/31 06:02:40;;;;;;;0.93;0.93;;;;;;;8.85;100.00;97405.66;4164245;28;20215;-51
2023/12/31 06:04:42;;;;;;;1.25;1.10;;;;;;;8.92;100.00;97398.88;4163239;28;20212;-50
2023/12/31 06:06:43;;;;;;;0.70;0.70;;;;;;;8.95;100.00;97397.53;4166774;28;20213;-50
2023/12/31 06:08:45;;;;;;;0.95;0.95;;;;;;;9.02;100.00;97393.44;4175113;28;20788;-51
2023/12/31 06:10:47;;;;;;;1.63;1.02;;;;;;;8.91;100.00;97399.97;4153577;28;20214;-50
2023/12/31 06:12:49;;;;;;;0.80;0.80;;;;;;;8.97;100.00;97389.88;4170106;28;20251;-51
2023/12/31 06:14:51;;;;;;;0.80;0.80;;;;;;;9.04;100.00;97387.72;4164057;28;20212;-51
2023/12/31 06:16:52;;;;;;;1.00;1.00;;;;;;;8.98;100.00;97380.59;4167688;28;20231;-52
2023/12/31 06:18:54;;;;;;;0.77;0.77;;;;;;;9.09;100.00;97394.00;4167368;28;20280;-50
2023/12/31 06:20:56;;;;;;;0.65;0.65;;;;;;;9.05;100.00;97386.63;4167514;28;21027;-50
2023/12/31 06:22:58;;;;;;;0.70;0.70;;;;;;;9.09;100.00;97376.84;4169863;28;20208;-50
2023/12/31 06:24:59;;;;;;;0.98;0.98;;;;;;;8.98;100.00;97375.16;4169944;28;20213;-50
2023/12/31 06:27:01;;;;;;;2.50;0.77;;;;;;;8.94;100.00;97374.06;4167453;28;20201;-50
2023/12/31 06:29:03;;;;;;;2.20;0.98;;;;;;;8.82;100.00;97373.47;4175859;28;20231;-51
2023/12/31 06:31:04;;;;;;;1.15;1.15;;;;;;;8.77;100.00;97379.72;4168280;28;20220;-51
2023/12/31 06:33:06;;;;;;;1.08;0.98;;;;;;;8.64;100.00;97382.09;4164214;28;20220;-51
2023/12/31 06:35:09;;;;;;;0.82;0.80;;;;;;;8.61;100.00;97369.03;4168582;28;21126;-51
2023/12/31 06:37:11;;;;;;;1.02;1.02;;;;;;;8.74;100.00;97379.44;4165742;28;20228;-50
2023/12/31 06:39:12;;;;;;;0.80;0.80;;;;;;;8.75;100.00;97360.06;4166197;28;20228;-50
2023/12/31 06:41:14;;;;;;;0.70;0.70;;;;;;;8.72;100.00;97360.59;4165563;28;20204;-50
2023/12/31 06:43:16;;;;;;;0.80;0.80;;;;;;;8.64;100.00;97365.75;4167723;28;20287;-51
2023/12/31 06:45:18;;;;;;;0.90;0.90;;;;;;;8.68;100.00;97358.69;4169213;28;20295;-50
2023/12/31 06:47:20;;;;;;;0.95;0.95;;;;;;;8.81;100.00;97374.56;4166728;28;20220;-50
2023/12/31 06:49:22;;;;;;;0.90;0.90;;;;;;;8.73;100.00;97372.31;4175080;28;20660;-51
2023/12/31 06:51:24;;;;;;;0.90;0.90;;;;;;;8.70;100.00;97364.69;4167038;28;20209;-50
2023/12/31 06:53:26;;;;;;;1.63;1.52;;;;;;;8.85;100.00;97362.00;4167994;28;20207;-49
2023/12/31 06:55:27;;;;;;;3.70;1.05;;;;;;;8.84;100.00;97369.41;4172213;28;20589;-50
2023/12/31 06:57:29;;;;;;;0.60;0.60;;;;;;;8.83;100.00;97361.47;4169368;28;20234;-50
2023/12/31 06:59:31;;;;;;;1.75;1.20;;;;;;;8.87;100.00;97359.81;4170851;28;20278;-51
2023/12/31 07:01:32;;;;;;;1.00;1.00;;;;;;;8.77;100.00;97351.63;4167943;28;20620;-51
2023/12/31 07:03:34;;;;;;;1.08;1.00;;;;;;;8.79;100.00;97349.44;4167795;28;20295;-51
2023/12/31 07:05:36;;;;;;;4.28;1.08;;;;;;;8.72;100.00;97346.16;4175660;28;20242;-51
2023/12/31 07:07:38;;;;;;;0.77;0.77;;;;;;;8.63;100.00;97345.03;4172396;28;20662;-51
2023/12/31 07:09:40;;;;;;;1.40;1.35;;;;;;;8.65;100.00;97348.28;4167482;28;20323;-50
2023/12/31 07:11:42;;;;;;;0.80;0.80;;;;;;;8.66;100.00;97339.03;4172050;28;20209;-50
2023/12/31 07:13:44;;;;;;;1.17;1.17;;;;;;;8.70;100.00;97337.41;4174990;28;20214;-50
2023/12/31 07:15:46;;;;;;;0.75;0.75;;;;;;;8.77;100.00;97327.06;4169606;28;20266;-50
2023/12/31 07:17:47;;;;;;;2.35;1.45;;;;;;;8.81;100.00;97337.19;4174740;28;20644;-50
2023/12/31 07:19:49;;;;;;;1.30;1.20;;;;;;;8.80;100.00;97331.97;4157374;28;20248;-51
2023/12/31 07:21:51;;;;;;;1.70;1.60;;;;;;;8.83;100.00;97334.19;4151312;28;20210;-51
2023/12/31 07:23:53;;;;;;;1.05;1.05;;;;;;;8.97;100.00;97335.31;4153841;28;20205;-51
2023/12/31 07:25:54;;;;;;;0.90;0.90;;;;;;;9.02;100.00;97327.16;4168984;28;20209;-50
2023/12/31 07:27:57;;;;;;;1.52;1.42;;;;;;;9.05;100.00;97332.06;4167620;28;20586;-50
2023/12/31 07:29:59;;;;;;;1.27;0.90;;;;;;;9.10;100.00;97318.44;4167463;28;20232;-50
2023/12/31 07:32:00;;;;;;;0.90;0.90;;;;;;;9.08;100.00;97326.09;4167000;28;20208;-51
2023/12/31 07:34:03;;;;;;;1.75;1.48;;;;;;;9.07;100.00;97313.50;4168809;28;20211;-51
2023/12/31 07:36:06;;;;;;;1.27;1.17;;;;;;;9.12;100.00;97316.25;4168214;28;20209;-52
2023/12/31 07:38:08;;;;;;;1.25;1.25;;;;;;;9.09;100.00;97316.81;4166957;28;20262;-51
2023/12/31 07:40:10;;;;;;;0.98;0.98;;;;;;;9.07;100.00;97308.06;4168774;28;20696;-50
2023/12/31 07:42:12;;;;;;;1.58;1.10;;;;;;;9.13;100.00;97299.63;4170311;28;20243;-50
2023/12/31 07:44:14;;;;;;;1.10;1.10;;;;;;;9.12;100.00;97302.63;4169048;28;20554;-50
2023/12/31 07:46:16;;;;;;;1.30;1.20;;;;;;;9.10;100.00;97302.06;4170019;28;20211;-50
2023/12/31 07:48:20;;;;;;;3.38;1.38;;;;;;;9.16;100.00;97303.72;4168988;28;20209;-51
2023/12/31 07:50:22;;;;;;;1.10;1.10;;;;;;;9.21;100.00;97299.09;4173844;28;20653;-52
2023/12/31 07:52:25;;;;;;;0.93;0.93;;;;;;;9.22;100.00;97316.28;4172398;28;20291;-50
2023/12/31 07:54:27;;;;;;;1.10;1.10;;;;;;;9.26;100.00;97306.44;4165134;28;20211;-51
2023/12/31 07:56:28;;;;;;;1.25;1.15;;;;;;;9.22;100.00;97294.47;4169228;28;20211;-51
2023/12/31 07:58:30;;;;;;;1.15;1.15;;;;;;;9.29;100.00;97300.47;4169160;28;20227;-50
2023/12/31 08:00:32;;;;;;;1.55;1.45;;;;;;;9.28;100.00;97285.97;4167676;28;20209;-51
2023/12/31 08:02:34;;;;;;;1.10;1.10;;;;;;;9.32;100.00;97280.81;4167198;28;20868;-52
2023/12/31 08:04:36;;;;;;;1.23;0.70;;;;;;;9.28;100.00;97285.19;4167067;28;20208;-51
2023/12/31 08:06:37;;;;;;;1.23;1.15;;;;;;;9.16;100.00;97279.97;4173373;28;20219;-51
2023/12/31 08:08:40;;;;;;;0.85;0.85;;;;;;;9.18;100.00;97288.72;4166054;28;20227;-51
2023/12/31 08:10:42;;;;;;;1.00;1.00;;;;;;;9.22;100.00;97289.78;4165758;28;20287;-51
2023/12/31 08:12:44;;;;;;;2.42;1.98;;;;;;;9.24;100.00;97286.81;4167613;28;20205;-51
2023/12/31 08:14:45;;;;;;;1.13;1.00;;;;;;;9.29;100.00;97286.81;4166663;28;20207;-51
2023/12/31 08:16:48;;;;;;;1.70;1.45;;;;;;;9.43;100.00;97279.72;4168996;28;20211;-50
2023/12/31 08:18:50;;;;;;;1.40;1.40;;;;;;;9.43;100.00;97277.78;4164403;28;20232;-50
2023/12/31 08:20:51;;;;;;;1.13;1.10;;;;;;;9.39;100.00;97267.69;4166630;28;20243;-50
2023/12/31 08:22:53;;;;;;;1.42;1.33;;;;;;;9.37;100.00;97272.63;4168537;28;20215;-49
2023/12/31 08:24:55;;;;;;;1.52;1.10;;;;;;;9.37;100.00;97275.34;4164852;28;20654;-51
2023/12/31 08:26:57;;;;;;;1.25;1.15;;;;;;;9.28;100.00;97268.81;4168433;28;20266;-52
2023/12/31 08:28:59;;;;;;;1.45;1.20;;;;;;;9.23;100.00;97275.06;4175074;28;20224;-51
2023/12/31 08:31:01;;;;;;;1.00;1.00;;;;;;;9.26;100.00;97274.53;4176614;28;20272;-51
2023/12/31 08:33:03;;;;;;;1.17;1.10;;;;;;;9.24;100.00;97270.44;4169188;28;20216;-51
2023/12/31 08:35:06;;;;;;;0.90;0.90;;;;;;;9.11;100.00;97263.59;4166179;28;20303;-51
2023/12/31 08:37:08;;;;;;;1.55;1.33;;;;;;;9.04;100.00;97265.78;4162986;28;20287;-51
2023/12/31 08:39:10;;;;;;;1.17;1.17;;;;;;;9.02;100.00;97272.59;4168656;28;20223;-51
2023/12/31 08:41:11;;;;;;;1.10;1.10;;;;;;;8.93;100.00;97272.31;4171073;28;20211;-51
2023/12/31 08:43:14;;;;;;;1.23;1.13;;;;;;;8.99;100.00;97278.56;4168262;28;20201;-51
2023/12/31 08:45:16;;;;;;;0.93;0.90;;;;;;;8.97;100.00;97275.31;4175811;28;20203;-51
2023/12/31 08:47:18;;;;;;;1.00;1.00;;;;;;;8.97;100.00;97273.41;4173647;28;20285;-51
2023/12/31 08:49:20;;;;;;;0.90;0.90;;;;;;;9.01;100.00;97270.97;4168480;28;20232;-51
2023/12/31 08:51:22;;;;;;;1.15;1.15;;;;;;;9.09;100.00;97271.22;4170239;28;20625;-51
2023/12/31 08:53:23;;;;;;;0.90;0.90;;;;;;;9.09;100.00;97273.16;4165759;28;20204;-50
2023/12/31 08:55:25;;;;;;;1.65;1.55;;;;;;;9.12;100.00;97267.97;4167971;28;20672;-51
2023/12/31 08:57:27;;;;;;;1.00;0.93;;;;;;;9.23;100.00;97279.72;4171726;28;20705;-51
2023/12/31 08:59:29;;;;;;;1.00;1.00;;;;;;;9.29;100.00;97284.09;4166127;28;20754;-51
2023/12/31 09:01:30;;;;;;;1.23;1.20;;;;;;;9.40;100.00;97281.09;4171607;28;20261;-51
2023/12/31 09:03:32;;;;;;;0.70;0.70;;;;;;;9.43;100.00;97285.19;4169444;28;20204;-50
2023/12/31 09:05:34;;;;;;;1.65;1.65;;;;;;;9.49;100.00;97300.47;4173414;28;20240;-51
2023/12/31 09:07:36;;;;;;;0.90;0.90;;;;;;;9.59;100.00;97297.72;4176948;28;20196;-52
2023/12/31 09:09:37;;;;;;;2.22;2.13;;;;;;;9.51;100.00;97276.44;4170058;28;20232;-52
2023/12/31 09:11:39;;;;;;;0.70;0.70;;;;;;;9.43;100.00;97271.53;4166618;28;20679;-51
2023/12/31 09:13:41;;;;;;;0.90;0.90;;;;;;;9.36;100.00;97268.25;4177380;28;20208;-51
2023/12/31 09:15:45;;;;;;;1.30;1.20;;;;;;;9.26;100.00;97273.69;4167771;28;20250;-51
2023/12/31 09:17:47;;;;;;;0.98;0.98;;;;;;;9.29;100.00;97270.44;4176394;28;20228;-51
2023/12/31 09:19:49;;;;;;;0.95;0.93;;;;;;;9.28;100.00;97282.44;4168723;28;20267;-51
2023/12/31 09:21:50;;;;;;;1.13;1.10;;;;;;;9.23;100.00;97275.06;4165462;28;20208;-51
2023/12/31 09:23:52;;;;;;;1.35;1.20;;;;;;;9.23;100.00;97279.72;4170072;28;20231;-53
2023/12/31 09:25:55;;;;;;;1.10;1.00;;;;;;;9.27;100.00;97288.97;4170263;28;20216;-54
2023/12/31 09:27:56;;;;;;;0.98;0.98;;;;;;;9.18;100.00;97286.00;4164644;28;20208;-57
2023/12/31 09:29:58;;;;;;;1.25;1.15;;;;;;;9.20;100.00;97274.78;4173012;28;20231;-53
2023/12/31 09:32:00;;;;;;;1.17;1.08;;;;;;;9.16;100.00;97281.88;4165967;28;20790;-51
2023/12/31 09:34:02;;;;;;;1.40;1.13;;;;;;;9.16;100.00;97284.63;4168994;28;20208;-51
2023/12/31 09:36:05;;;;;;;0.77;0.77;;;;;;;9.21;100.00;97292.81;4166736;28;21024;-51